Time;durP1;ratioP1;P1;durP2;ratioP2;P2;SDS_P1;SDS_P2;PMS_P1;PMS_P2;Temp;Humidity;BMP_temperature;BMP_pressure;BME280_temperature;BME280_humidity;BME280_pressure;Samples;Min_cycle;Max_cycle;Signal;HPM_P1;HPM_P2
2021/12/18 00:02:09;;;;;;;4.57;1.70;;;11.50;92.10;;;;;;5041510;28;20357;-75
2021/12/18 00:04:35;;;;;;;6.07;1.13;;;11.50;92.10;;;;;;5044744;28;20100;-75
2021/12/18 00:07:01;;;;;;;3.72;1.40;;;11.50;92.10;;;;;;5042770;28;20064;-75
2021/12/18 00:09:29;;;;;;;2.30;1.17;;;11.50;92.10;;;;;;5035313;28;20112;-76
2021/12/18 00:11:55;;;;;;;4.07;1.33;;;11.50;92.10;;;;;;5054939;28;20388;-76
2021/12/18 00:14:21;;;;;;;4.80;1.23;;;11.60;92.00;;;;;;5055727;28;20033;-78
2021/12/18 00:16:46;;;;;;;3.92;1.52;;;11.60;92.00;;;;;;5041539;28;20051;-77
2021/12/18 00:19:24;;;;;;;8.65;1.70;;;11.50;92.00;;;;;;5055647;28;20112;-77
2021/12/18 00:21:50;;;;;;;2.72;1.10;;;11.50;92.00;;;;;;5044369;28;20040;-77
2021/12/18 00:24:15;;;;;;;3.83;1.00;;;11.50;91.90;;;;;;5054486;28;20035;-77
2021/12/18 00:26:41;;;;;;;2.22;0.85;;;11.50;91.90;;;;;;5046683;28;20029;-77
2021/12/18 00:29:07;;;;;;;6.72;1.30;;;11.60;91.90;;;;;;5049873;28;20017;-77
2021/12/18 00:31:32;;;;;;;1.23;1.05;;;11.50;91.90;;;;;;5054637;28;20370;-77
2021/12/18 00:33:58;;;;;;;3.50;1.08;;;11.50;91.90;;;;;;5040740;28;20128;-77
2021/12/18 00:36:24;;;;;;;3.45;1.23;;;11.50;91.90;;;;;;5035437;28;20044;-78
2021/12/18 00:38:51;;;;;;;1.67;1.10;;;11.50;91.90;;;;;;5050960;28;20029;-77
2021/12/18 00:41:35;;;;;;;5.00;1.23;;;11.50;91.90;;;;;;5055501;28;20124;-77
2021/12/18 00:44:01;;;;;;;1.65;1.08;;;11.50;91.90;;;;;;5035328;28;20435;-77
2021/12/18 00:46:40;;;;;;;1.88;1.13;;;11.50;91.90;;;;;;5047510;28;20022;-77
2021/12/18 00:49:08;;;;;;;1.13;0.90;;;11.50;91.90;;;;;;5047947;28;20068;-77
2021/12/18 00:51:35;;;;;;;2.08;1.10;;;11.50;91.90;;;;;;5044455;28;20053;-77
2021/12/18 00:54:01;;;;;;;0.95;0.90;;;11.50;91.90;;;;;;5037794;28;20037;-77
2021/12/18 00:56:27;;;;;;;2.33;1.20;;;11.50;91.90;;;;;;5035612;28;20176;-77
2021/12/18 00:58:52;;;;;;;6.43;0.90;;;11.50;91.90;;;;;;5051876;28;20539;-77
2021/12/18 01:01:21;;;;;;;17.48;1.33;;;11.40;91.90;;;;;;5054991;28;20481;-77
2021/12/18 01:03:48;;;;;;;2.00;1.15;;;11.50;92.00;;;;;;5054429;28;20464;-77
2021/12/18 01:06:15;;;;;;;1.42;1.13;;;11.40;91.90;;;;;;5048661;28;20404;-77
2021/12/18 01:08:44;;;;;;;2.13;1.13;;;11.40;91.90;;;;;;5054412;28;20465;-77
2021/12/18 01:11:30;;;;;;;3.13;1.40;;;11.40;91.90;;;;;;5041814;28;20046;-77
2021/12/18 01:14:20;;;;;;;3.83;1.50;;;11.40;91.90;;;;;;5034359;28;20026;-77
2021/12/18 01:24:43;;;;;;;5.57;1.23;;;11.30;92.00;;;;;;5047658;28;20122;-77
2021/12/18 01:27:09;;;;;;;6.75;1.30;;;11.40;92.00;;;;;;5034779;28;20033;-77
2021/12/18 01:29:35;;;;;;;20.02;1.63;;;11.40;92.10;;;;;;5039614;28;20044;-77
2021/12/18 01:32:00;;;;;;;4.13;1.48;;;11.40;92.10;;;;;;5042075;28;20132;-77
2021/12/18 01:34:26;;;;;;;2.63;1.33;;;11.30;92.00;;;;;;5040161;28;20079;-77
2021/12/18 01:36:51;;;;;;;12.95;1.50;;;11.40;92.10;;;;;;5054556;28;20041;-77
2021/12/18 01:39:17;;;;;;;9.85;1.50;;;11.30;92.10;;;;;;5053978;28;20082;-75
2021/12/18 01:44:54;;;;;;;3.28;1.38;;;11.40;92.10;;;;;;5036830;28;20036;-75
2021/12/18 01:52:44;;;;;;;22.92;2.10;;;11.40;92.10;;;;;;5033865;28;20033;-75
2021/12/18 01:55:10;;;;;;;7.20;0.95;;;11.40;92.10;;;;;;5046336;28;20043;-75
2021/12/18 01:57:36;;;;;;;7.50;1.10;;;11.30;92.10;;;;;;5033915;28;20052;-75
2021/12/18 02:00:24;;;;;;;5.72;0.93;;;11.40;92.10;;;;;;5033579;28;20044;-75
2021/12/18 02:02:50;;;;;;;2.25;1.02;;;11.40;92.20;;;;;;5052795;28;20044;-75
2021/12/18 02:05:18;;;;;;;4.80;1.08;;;11.30;92.10;;;;;;5049380;28;20538;-78
2021/12/18 02:07:44;;;;;;;13.82;1.23;;;11.40;92.20;;;;;;5040558;28;20461;-78
2021/12/18 02:20:10;;;;;;;1.55;0.90;;;11.40;92.10;;;;;;5035572;28;20444;-76
2021/12/18 02:22:01;;;;;;;13.80;0.90;;;11.30;92.10;;;;;;5037825;28;20037;-75
2021/12/18 02:24:29;;;;;;;2.47;0.80;;;11.40;92.20;;;;;;5038932;28;20480;-75
2021/12/18 02:26:55;;;;;;;10.73;1.17;;;11.30;92.20;;;;;;5053406;28;20037;-75
2021/12/18 02:29:21;;;;;;;1.38;1.10;;;11.30;92.20;;;;;;5036175;28;20029;-75
2021/12/18 02:31:46;;;;;;;2.15;1.48;;;11.30;92.20;;;;;;5032907;28;20030;-76
2021/12/18 02:34:22;;;;;;;1.02;0.65;;;11.40;92.20;;;;;;5050868;28;20040;-75
2021/12/18 02:36:48;;;;;;;3.53;1.20;;;11.30;92.20;;;;;;5039763;28;20053;-75
2021/12/18 02:39:40;;;;;;;5.00;1.20;;;11.30;92.20;;;;;;5052753;28;20389;-75
2021/12/18 02:42:13;;;;;;;1.83;1.13;;;11.30;92.20;;;;;;5035812;28;20435;-75
2021/12/18 02:44:40;;;;;;;1.10;0.97;;;11.20;92.20;;;;;;5037981;28;20067;-75
2021/12/18 02:47:07;;;;;;;3.95;0.90;;;11.20;92.30;;;;;;5052967;28;20041;-75
2021/12/18 02:49:33;;;;;;;1.05;0.82;;;11.20;92.30;;;;;;5052613;28;20032;-75
2021/12/18 02:51:59;;;;;;;2.28;1.20;;;11.30;92.40;;;;;;5051781;28;20064;-75
2021/12/18 02:54:25;;;;;;;1.60;1.23;;;11.30;92.40;;;;;;5052822;28;20041;-75
2021/12/18 02:56:51;;;;;;;2.17;1.50;;;11.30;92.40;;;;;;5052584;28;20068;-75
2021/12/18 02:59:17;;;;;;;1.67;1.10;;;11.30;92.40;;;;;;5052449;28;20053;-75
2021/12/18 03:01:43;;;;;;;1.77;1.10;;;11.30;92.40;;;;;;5052732;28;20337;-75
2021/12/18 03:04:29;;;;;;;2.05;1.40;;;11.30;92.40;;;;;;5053008;28;20428;-75
2021/12/18 03:06:59;;;;;;;2.60;1.42;;;11.30;92.40;;;;;;5041133;28;20029;-75
2021/12/18 03:09:52;;;;;;;2.83;1.38;;;11.30;92.70;;;;;;5032788;28;20042;-75
2021/12/18 03:23:31;;;;;;;3.10;1.70;;;11.30;92.50;;;;;;5045186;28;20027;-77
2021/12/18 03:26:00;;;;;;;2.75;1.58;;;11.30;92.50;;;;;;5051453;28;20082;-78
2021/12/18 03:28:26;;;;;;;3.13;1.67;;;11.30;92.50;;;;;;5052340;28;20060;-78
2021/12/18 03:30:52;;;;;;;2.35;1.20;;;11.30;92.50;;;;;;5050053;28;20056;-77
2021/12/18 03:33:18;;;;;;;1.50;1.25;;;11.40;92.60;;;;;;5040676;28;20061;-75
2021/12/18 03:35:45;;;;;;;4.15;1.95;;;11.40;92.60;;;;;;5042860;28;20042;-75
2021/12/18 03:38:11;;;;;;;3.38;1.55;;;11.40;92.60;;;;;;5035236;28;20136;-75
2021/12/18 03:40:37;;;;;;;3.40;1.50;;;11.40;92.60;;;;;;5031085;28;20174;-75
2021/12/18 03:43:03;;;;;;;2.20;1.38;;;11.50;92.70;;;;;;5037173;28;20080;-77
2021/12/18 03:45:29;;;;;;;4.00;1.58;;;11.50;92.60;;;;;;5037567;28;20072;-75
2021/12/18 03:47:54;;;;;;;2.50;1.60;;;11.50;92.90;;;;;;5033335;28;20061;-75
2021/12/18 03:50:21;;;;;;;3.25;1.52;;;11.50;92.60;;;;;;5039059;28;20068;-74
2021/12/18 03:52:47;;;;;;;4.03;1.60;;;11.50;92.60;;;;;;5033861;28;20029;-75
2021/12/18 03:55:14;;;;;;;2.55;1.73;;;11.50;92.70;;;;;;5032217;28;20076;-75
2021/12/18 03:57:40;;;;;;;3.17;1.80;;;11.50;92.70;;;;;;5039783;28;20045;-75
2021/12/18 04:00:10;;;;;;;3.55;2.03;;;11.60;92.70;;;;;;5031352;28;20028;-75
2021/12/18 04:02:39;;;;;;;5.72;2.20;;;11.60;92.60;;;;;;5030800;28;20120;-75
2021/12/18 04:05:06;;;;;;;3.88;2.38;;;11.60;92.60;;;;;;5041865;28;20026;-75
2021/12/18 04:07:39;;;;;;;3.53;2.00;;;11.60;92.60;;;;;;5031559;28;20037;-75
2021/12/18 04:10:06;;;;;;;3.22;1.90;;;11.60;92.70;;;;;;5033258;28;20057;-75
2021/12/18 04:12:32;;;;;;;6.40;1.98;;;11.60;92.70;;;;;;5031113;28;20030;-75
2021/12/18 04:14:57;;;;;;;2.92;1.70;;;11.60;92.70;;;;;;5031065;28;20033;-74
2021/12/18 04:17:23;;;;;;;5.20;2.35;;;11.60;92.70;;;;;;5048550;28;20033;-75
2021/12/18 04:19:48;;;;;;;2.90;1.85;;;11.70;92.70;;;;;;5041645;28;20060;-75
2021/12/18 04:22:14;;;;;;;5.78;2.10;;;11.70;93.00;;;;;;5043919;28;20937;-75
2021/12/18 04:24:40;;;;;;;4.55;2.22;;;11.70;92.70;;;;;;5034851;28;20041;-75
2021/12/18 04:27:05;;;;;;;3.97;2.08;;;11.70;92.70;;;;;;5040215;28;20039;-75
2021/12/18 04:29:31;;;;;;;3.28;1.98;;;11.70;92.70;;;;;;5055111;28;20069;-75
2021/12/18 04:31:57;;;;;;;3.72;1.90;;;11.70;92.70;;;;;;5055352;28;20049;-75
2021/12/18 04:34:22;;;;;;;4.30;2.40;;;11.80;92.70;;;;;;5043783;28;20059;-75
2021/12/18 04:36:48;;;;;;;2.88;1.95;;;11.80;92.70;;;;;;5039663;28;20045;-75
2021/12/18 04:39:13;;;;;;;6.13;1.98;;;11.70;92.70;;;;;;5055297;28;20029;-77
2021/12/18 04:41:43;;;;;;;4.30;2.15;;;11.80;92.70;;;;;;5049353;28;20033;-75
2021/12/18 04:44:09;;;;;;;3.22;1.90;;;11.80;92.70;;;;;;5047731;28;20496;-75
2021/12/18 04:46:35;;;;;;;6.63;2.38;;;11.80;92.60;;;;;;5048403;28;20036;-74
2021/12/18 04:49:01;;;;;;;3.50;2.17;;;11.80;92.60;;;;;;5048575;28;20427;-75
2021/12/18 04:51:27;;;;;;;4.35;2.22;;;11.80;92.60;;;;;;5054373;28;20102;-75
2021/12/18 04:53:52;;;;;;;5.45;2.08;;;11.80;92.60;;;;;;5040930;28;20021;-75
2021/12/18 04:56:18;;;;;;;7.82;2.40;;;11.80;92.60;;;;;;5048075;28;20408;-75
2021/12/18 04:58:44;;;;;;;6.68;2.20;;;11.80;92.60;;;;;;5045046;28;20501;-74
2021/12/18 05:01:09;;;;;;;3.38;2.28;;;11.80;92.60;;;;;;5050704;28;20476;-75
2021/12/18 05:03:38;;;;;;;5.20;2.55;;;11.80;92.60;;;;;;5035288;28;20052;-75
2021/12/18 05:06:03;;;;;;;4.25;2.38;;;11.80;92.60;;;;;;5052193;28;20099;-74
2021/12/18 05:08:29;;;;;;;7.63;2.97;;;11.80;92.60;;;;;;5043231;28;20053;-75
2021/12/18 05:10:55;;;;;;;14.82;3.30;;;11.90;92.70;;;;;;5040095;28;20049;-75
2021/12/18 05:13:21;;;;;;;7.65;3.13;;;11.80;92.60;;;;;;5054117;28;20048;-74
2021/12/18 05:15:47;;;;;;;8.57;3.78;;;11.80;92.60;;;;;;5054212;28;20056;-77
2021/12/18 05:18:12;;;;;;;8.50;3.08;;;11.80;92.60;;;;;;5041745;28;20029;-76
2021/12/18 05:20:41;;;;;;;10.88;3.47;;;11.90;92.60;;;;;;5053739;28;20097;-75
2021/12/18 05:23:06;;;;;;;11.60;3.03;;;11.80;92.60;;;;;;5054391;28;20032;-75
2021/12/18 05:25:32;;;;;;;6.25;3.15;;;11.80;92.70;;;;;;5053861;28;20756;-75
2021/12/18 05:27:58;;;;;;;8.45;2.75;;;11.80;92.70;;;;;;5053700;28;20032;-75
2021/12/18 05:30:24;;;;;;;6.63;3.35;;;11.80;92.70;;;;;;5041890;28;20033;-75
2021/12/18 05:32:50;;;;;;;7.60;2.90;;;11.80;92.70;;;;;;5053168;28;20033;-75
2021/12/18 05:35:16;;;;;;;6.95;2.92;;;11.80;92.80;;;;;;5053347;28;20095;-75
2021/12/18 05:37:53;;;;;;;6.50;2.92;;;11.80;92.80;;;;;;5039368;28;20158;-75
2021/12/18 05:40:25;;;;;;;6.45;2.58;;;11.80;92.80;;;;;;5033778;28;20034;-75
2021/12/18 05:42:52;;;;;;;17.67;2.75;;;11.80;92.90;;;;;;5033996;28;20041;-77
2021/12/18 05:45:19;;;;;;;8.93;2.28;;;11.80;92.90;;;;;;5045445;28;20425;-77
2021/12/18 05:47:46;;;;;;;11.02;2.53;;;11.80;93.00;;;;;;5053202;28;20025;-77
2021/12/18 05:50:16;;;;;;;9.50;2.50;;;11.70;93.00;;;;;;5042226;28;20037;-77
2021/12/18 05:52:44;;;;;;;6.35;2.08;;;11.80;93.00;;;;;;5047240;28;20033;-77
2021/12/18 05:55:10;;;;;;;7.82;2.25;;;11.70;93.00;;;;;;5040577;28;20041;-77
2021/12/18 05:57:35;;;;;;;14.88;2.33;;;11.70;92.90;;;;;;5039275;28;20037;-77
2021/12/18 06:00:05;;;;;;;8.80;2.08;;;11.70;92.90;;;;;;5046018;28;20132;-77
2021/12/18 06:02:31;;;;;;;7.10;2.10;;;11.70;92.90;;;;;;5048176;28;20043;-77
2021/12/18 06:04:57;;;;;;;5.15;1.48;;;11.70;92.90;;;;;;5044966;28;20384;-77
2021/12/18 06:07:39;;;;;;;6.85;1.70;;;11.70;92.90;;;;;;5036073;28;20035;-77
2021/12/18 06:10:05;;;;;;;5.95;1.60;;;11.70;92.90;;;;;;5041933;28;20201;-77
2021/12/18 06:12:31;;;;;;;6.65;2.42;;;11.70;92.90;;;;;;5033668;28;20048;-82
2021/12/18 06:14:56;;;;;;;5.85;1.60;;;11.70;93.20;;;;;;5041152;28;20029;-78
2021/12/18 06:17:22;;;;;;;10.75;2.20;;;11.70;92.90;;;;;;5048906;28;20072;-79
2021/12/18 06:19:47;;;;;;;5.68;1.30;;;11.80;92.90;;;;;;5053047;28;20024;-78
2021/12/18 06:22:13;;;;;;;4.80;1.50;;;11.80;92.90;;;;;;5049560;28;20087;-78
2021/12/18 06:24:39;;;;;;;5.75;1.70;;;11.90;92.90;;;;;;5041181;28;20037;-79
2021/12/18 06:27:04;;;;;;;7.28;1.52;;;11.90;92.90;;;;;;5048594;28;20112;-79
2021/12/18 06:29:32;;;;;;;11.45;1.40;;;11.90;92.80;;;;;;5036971;28;20103;-74
2021/12/18 06:31:57;;;;;;;9.68;1.50;;;11.90;92.80;;;;;;5039257;28;20082;-74
2021/12/18 06:34:23;;;;;;;4.57;1.50;;;11.90;92.80;;;;;;5043921;28;20026;-75
2021/12/18 06:36:49;;;;;;;3.92;1.30;;;11.80;92.70;;;;;;5050447;28;20037;-74
2021/12/18 06:39:14;;;;;;;4.75;1.63;;;11.90;92.70;;;;;;5050508;28;20059;-77
2021/12/18 06:41:40;;;;;;;3.17;1.33;;;11.90;92.70;;;;;;5044461;28;20033;-75
2021/12/18 06:44:06;;;;;;;5.47;1.73;;;11.90;92.70;;;;;;5050129;28;20051;-76
2021/12/18 06:46:32;;;;;;;7.53;1.95;;;11.90;92.70;;;;;;5034786;28;20080;-77
2021/12/18 06:48:57;;;;;;;9.40;2.70;;;11.90;92.70;;;;;;5041597;28;20036;-76
2021/12/18 06:51:23;;;;;;;8.07;1.42;;;11.90;92.70;;;;;;5032334;28;20136;-76
2021/12/18 06:53:49;;;;;;;3.55;1.33;;;11.90;92.70;;;;;;5035490;28;20037;-77
2021/12/18 06:56:15;;;;;;;3.72;1.52;;;11.90;92.70;;;;;;5041921;28;20055;-76
2021/12/18 06:58:40;;;;;;;8.48;1.75;;;12.00;92.70;;;;;;5032821;28;20035;-79
2021/12/18 07:01:06;;;;;;;8.35;1.83;;;11.90;92.70;;;;;;5045372;28;20116;-78
2021/12/18 07:03:33;;;;;;;9.50;2.25;;;11.90;92.70;;;;;;5031102;28;20021;-77
2021/12/18 07:06:00;;;;;;;8.88;1.70;;;11.90;92.70;;;;;;5043570;28;20038;-73
2021/12/18 07:08:25;;;;;;;3.38;1.63;;;11.90;92.70;;;;;;5044677;28;20491;-74
2021/12/18 07:10:51;;;;;;;6.28;1.75;;;11.90;92.80;;;;;;5036675;28;20079;-76
2021/12/18 07:13:17;;;;;;;10.20;1.80;;;11.90;92.80;;;;;;5051413;28;20036;-76
2021/12/18 07:15:42;;;;;;;7.35;1.50;;;11.90;92.80;;;;;;5036895;28;20531;-76
2021/12/18 07:18:08;;;;;;;9.35;1.80;;;12.00;92.80;;;;;;5048701;28;20044;-76
2021/12/18 07:20:34;;;;;;;4.63;1.60;;;11.90;92.70;;;;;;5050828;28;20116;-76
2021/12/18 07:23:00;;;;;;;8.30;1.42;;;12.00;92.80;;;;;;5051065;28;20143;-77
2021/12/18 07:25:27;;;;;;;5.63;1.60;;;12.00;92.80;;;;;;5050553;28;20428;-74
2021/12/18 07:27:56;;;;;;;5.68;1.65;;;12.00;92.70;;;;;;5037008;28;20477;-74
2021/12/18 07:30:23;;;;;;;8.10;1.90;;;12.00;92.70;;;;;;5043002;28;20026;-75
2021/12/18 07:32:49;;;;;;;9.75;1.90;;;12.00;92.70;;;;;;5033125;28;20112;-75
2021/12/18 07:35:15;;;;;;;7.65;1.70;;;12.00;92.70;;;;;;5043711;28;20548;-75
2021/12/18 07:37:40;;;;;;;12.77;1.77;;;12.00;92.60;;;;;;5047351;28;20128;-75
2021/12/18 07:40:08;;;;;;;11.18;1.77;;;12.00;92.60;;;;;;5043552;28;20108;-82
2021/12/18 07:42:34;;;;;;;11.15;2.00;;;12.00;92.60;;;;;;5041767;28;20057;-74
2021/12/18 07:44:59;;;;;;;7.72;1.45;;;12.00;92.60;;;;;;5032174;28;20029;-75
2021/12/18 07:47:26;;;;;;;5.68;1.50;;;12.00;92.50;;;;;;5031136;28;20041;-75
2021/12/18 07:49:51;;;;;;;6.93;2.10;;;11.90;92.50;;;;;;5034877;28;20033;-74
2021/12/18 07:52:17;;;;;;;9.50;1.83;;;11.90;92.50;;;;;;5031355;28;20049;-74
2021/12/18 07:54:43;;;;;;;2.25;1.02;;;12.00;92.40;;;;;;5036667;28;20056;-74
2021/12/18 07:57:08;;;;;;;1.55;0.60;;;12.00;92.40;;;;;;5031779;28;20054;-76
2021/12/18 07:59:34;;;;;;;6.05;1.30;;;12.00;92.20;;;;;;5038752;28;20033;-75
2021/12/18 08:02:01;;;;;;;2.28;0.80;;;12.00;92.20;;;;;;5043006;28;20033;-75
2021/12/18 08:04:27;;;;;;;5.28;1.55;;;12.00;92.20;;;;;;5037851;28;20473;-75
2021/12/18 08:06:53;;;;;;;2.60;0.90;;;12.00;92.20;;;;;;5035428;28;20107;-75
2021/12/18 08:09:19;;;;;;;2.40;0.90;;;12.00;92.10;;;;;;5037422;28;20057;-74
2021/12/18 08:11:44;;;;;;;4.43;1.00;;;12.00;92.10;;;;;;5035052;28;20103;-74
2021/12/18 08:14:10;;;;;;;6.53;1.48;;;11.90;92.10;;;;;;5034702;28;20044;-74
2021/12/18 08:16:36;;;;;;;3.35;1.20;;;11.90;92.10;;;;;;5038163;28;20056;-74
2021/12/18 08:19:02;;;;;;;3.88;1.50;;;11.90;92.10;;;;;;5037931;28;20029;-74
2021/12/18 08:21:27;;;;;;;4.78;1.10;;;11.90;92.10;;;;;;5034265;28;20426;-74
2021/12/18 08:23:53;;;;;;;3.78;1.08;;;11.90;92.20;;;;;;5038267;28;20026;-74
2021/12/18 08:26:18;;;;;;;5.40;1.27;;;11.90;92.20;;;;;;5035429;28;20389;-74
2021/12/18 08:28:44;;;;;;;7.75;1.20;;;11.90;92.20;;;;;;5035479;28;20061;-74
2021/12/18 08:31:10;;;;;;;7.20;1.17;;;11.90;92.20;;;;;;5037431;28;20033;-74
2021/12/18 08:33:35;;;;;;;6.43;1.30;;;11.90;92.30;;;;;;5033986;28;20033;-73
2021/12/18 08:36:01;;;;;;;8.80;1.95;;;11.90;92.30;;;;;;5033010;28;20025;-73
2021/12/18 08:38:27;;;;;;;5.50;1.42;;;11.90;92.30;;;;;;5036853;28;20392;-73
2021/12/18 08:40:52;;;;;;;7.57;1.77;;;11.90;92.30;;;;;;5033385;28;20026;-74
2021/12/18 08:43:18;;;;;;;8.07;1.55;;;12.00;92.30;;;;;;5033771;28;20057;-73
2021/12/18 08:45:44;;;;;;;2.80;1.05;;;12.00;92.60;;;;;;5037764;28;20094;-73
2021/12/18 08:48:09;;;;;;;4.35;1.02;;;12.00;92.30;;;;;;5033901;28;20055;-74
2021/12/18 08:50:35;;;;;;;7.35;1.60;;;12.00;92.30;;;;;;5033039;28;20042;-73
2021/12/18 08:53:01;;;;;;;4.88;1.55;;;12.00;92.30;;;;;;5033504;28;20030;-73
2021/12/18 08:55:26;;;;;;;7.05;1.58;;;12.00;92.50;;;;;;5034355;28;20473;-72
2021/12/18 08:57:52;;;;;;;7.88;1.60;;;12.10;92.30;;;;;;5032377;28;20041;-73
2021/12/18 09:00:21;;;;;;;7.60;1.60;;;12.10;92.20;;;;;;5041922;28;20040;-74
2021/12/18 09:02:51;;;;;;;3.58;1.00;;;12.10;92.20;;;;;;5039721;28;20033;-73
2021/12/18 09:05:17;;;;;;;3.95;1.50;;;12.10;92.20;;;;;;5043307;28;20110;-68
2021/12/18 09:07:45;;;;;;;4.53;1.40;;;12.10;92.20;;;;;;5045609;28;20481;-73
2021/12/18 09:10:15;;;;;;;13.23;1.50;;;12.10;92.20;;;;;;5045115;28;20030;-74
2021/12/18 09:12:41;;;;;;;5.90;1.60;;;12.10;92.20;;;;;;5039610;28;20475;-73
2021/12/18 09:15:08;;;;;;;5.78;1.60;;;12.10;92.20;;;;;;5042399;28;20079;-73
2021/12/18 09:17:34;;;;;;;12.18;1.95;;;12.00;92.20;;;;;;5034086;28;20412;-73
2021/12/18 09:19:59;;;;;;;9.40;1.60;;;12.10;92.20;;;;;;5034157;28;20021;-71
2021/12/18 09:22:25;;;;;;;10.35;1.50;;;12.10;92.20;;;;;;5046574;28;20042;-72
2021/12/18 09:24:51;;;;;;;7.35;1.83;;;12.10;92.20;;;;;;5034562;28;20076;-72
2021/12/18 09:27:17;;;;;;;6.78;1.70;;;12.10;92.30;;;;;;5039255;28;20056;-72
2021/12/18 09:29:43;;;;;;;8.52;1.60;;;12.00;92.20;;;;;;5037283;28;20040;-75
2021/12/18 09:32:09;;;;;;;14.93;2.30;;;12.00;92.30;;;;;;5032148;28;20087;-73
2021/12/18 09:34:34;;;;;;;7.25;1.80;;;12.10;92.30;;;;;;5037738;28;20037;-75
2021/12/18 09:37:01;;;;;;;8.02;1.73;;;12.10;92.30;;;;;;5036267;28;20065;-74
2021/12/18 09:39:27;;;;;;;9.15;1.83;;;12.10;92.30;;;;;;5044797;28;20480;-74
2021/12/18 09:41:53;;;;;;;10.48;1.80;;;12.10;92.40;;;;;;5043602;28;20026;-74
2021/12/18 09:44:28;;;;;;;9.27;2.15;;;12.10;92.40;;;;;;5047169;28;20127;-74
2021/12/18 09:46:54;;;;;;;6.78;1.50;;;12.10;92.40;;;;;;5045309;28;20148;-73
2021/12/18 09:49:20;;;;;;;7.65;1.90;;;12.10;92.40;;;;;;5034499;28;20053;-72
2021/12/18 09:51:47;;;;;;;10.73;1.98;;;12.10;92.40;;;;;;5032875;28;20483;-72
2021/12/18 09:54:12;;;;;;;5.68;1.63;;;12.10;92.40;;;;;;5036648;28;20033;-72
2021/12/18 09:56:39;;;;;;;9.20;1.83;;;12.10;92.40;;;;;;5035380;28;20361;-72
2021/12/18 09:59:05;;;;;;;7.30;2.17;;;12.10;92.40;;;;;;5035048;28;20033;-74
2021/12/18 10:01:32;;;;;;;18.83;2.03;;;12.10;92.40;;;;;;5034103;28;20059;-72
2021/12/18 10:04:00;;;;;;;9.05;2.80;;;12.20;92.50;;;;;;5032901;28;20025;-72
2021/12/18 10:06:44;;;;;;;8.05;2.28;;;12.10;92.50;;;;;;5041569;28;20033;-73
2021/12/18 10:09:15;;;;;;;7.35;1.60;;;12.10;92.50;;;;;;5042112;28;20025;-73
2021/12/18 10:11:54;;;;;;;6.78;1.67;;;12.10;92.50;;;;;;5047169;28;20528;-73
2021/12/18 10:14:34;;;;;;;11.75;1.60;;;12.10;92.50;;;;;;5044933;28;20124;-73
2021/12/18 10:17:00;;;;;;;8.63;2.10;;;12.20;92.50;;;;;;5047294;28;20126;-72
2021/12/18 10:19:30;;;;;;;6.53;1.85;;;12.20;92.50;;;;;;5046152;28;20064;-72
2021/12/18 10:22:04;;;;;;;2.55;1.30;;;12.10;92.50;;;;;;5047089;28;20122;-72
2021/12/18 10:24:31;;;;;;;8.88;1.55;;;12.20;92.50;;;;;;5046908;28;20108;-72
2021/12/18 10:26:57;;;;;;;8.95;1.60;;;12.20;92.50;;;;;;5045073;28;20068;-72
2021/12/18 10:29:34;;;;;;;7.28;1.67;;;12.20;92.40;;;;;;5044306;28;20029;-72
2021/12/18 10:32:21;;;;;;;10.20;1.60;;;12.30;92.50;;;;;;5040838;28;20120;-72
2021/12/18 10:34:55;;;;;;;8.63;1.60;;;12.30;92.40;;;;;;5047442;28;20040;-71
2021/12/18 10:37:24;;;;;;;5.28;1.45;;;12.30;92.40;;;;;;5044557;28;20091;-72
2021/12/18 10:39:59;;;;;;;6.88;1.63;;;12.40;92.40;;;;;;5044626;28;20029;-75
2021/12/18 10:42:42;;;;;;;5.32;1.13;;;12.30;92.30;;;;;;5040277;28;20044;-73
2021/12/18 10:45:16;;;;;;;5.68;1.70;;;12.30;92.30;;;;;;5031071;28;20022;-74
2021/12/18 10:47:44;;;;;;;9.95;1.90;;;12.40;92.30;;;;;;5036649;28;20059;-73
2021/12/18 10:50:24;;;;;;;5.00;1.65;;;12.40;92.30;;;;;;5041963;28;20554;-74
2021/12/18 10:53:01;;;;;;;3.67;1.50;;;12.40;92.30;;;;;;5045829;28;20040;-73
2021/12/18 10:55:36;;;;;;;6.60;1.55;;;12.40;92.20;;;;;;5045810;28;20056;-73
2021/12/18 10:58:08;;;;;;;3.90;1.20;;;12.40;92.20;;;;;;5041460;28;20043;-74
2021/12/18 11:00:44;;;;;;;4.85;1.50;;;12.40;92.20;;;;;;5045637;28;20032;-74
2021/12/18 11:03:27;;;;;;;7.13;1.80;;;12.50;92.20;;;;;;5045078;28;20036;-74
2021/12/18 11:06:09;;;;;;;7.95;1.80;;;12.50;92.10;;;;;;5051378;28;20021;-74
2021/12/18 11:08:51;;;;;;;5.57;1.70;;;12.50;92.10;;;;;;5032178;28;20044;-76
2021/12/18 11:14:24;;;;;;;10.75;1.75;;;12.50;92.10;;;;;;5027319;28;20048;-74
2021/12/18 11:16:52;;;;;;;5.68;1.70;;;12.50;92.10;;;;;;5038499;28;20041;-75
2021/12/18 11:19:21;;;;;;;8.80;1.70;;;12.50;92.10;;;;;;5042795;28;20034;-75
2021/12/18 11:21:54;;;;;;;9.38;1.85;;;12.50;92.10;;;;;;5032588;28;20021;-74
2021/12/18 11:24:30;;;;;;;11.37;1.97;;;12.50;92.10;;;;;;5034744;28;20034;-75
2021/12/18 11:26:56;;;;;;;5.20;2.03;;;12.60;92.20;;;;;;5038061;28;20365;-72
2021/12/18 11:29:29;;;;;;;8.70;2.50;;;12.60;92.20;;;;;;5051573;28;20029;-73
2021/12/18 11:31:55;;;;;;;4.80;2.08;;;12.50;92.40;;;;;;5038992;28;20110;-74
2021/12/18 11:34:22;;;;;;;9.63;1.92;;;12.60;92.10;;;;;;5037275;28;20088;-74
2021/12/18 11:36:50;;;;;;;6.22;1.33;;;12.50;92.00;;;;;;5038338;28;20037;-73
2021/12/18 11:39:18;;;;;;;8.68;1.60;;;12.50;92.00;;;;;;5051367;28;20464;-73
2021/12/18 11:41:48;;;;;;;13.20;1.92;;;12.60;92.00;;;;;;5039937;28;20038;-82
2021/12/18 11:44:32;;;;;;;4.05;1.65;;;12.50;92.00;;;;;;5034229;28;20029;-74
2021/12/18 11:47:37;;;;;;;4.70;1.73;;;12.60;92.10;;;;;;5030496;28;20030;-74
2021/12/18 11:50:25;;;;;;;9.02;1.65;;;12.60;92.10;;;;;;5029094;28;20120;-74
2021/12/18 11:53:00;;;;;;;7.18;1.63;;;12.60;92.10;;;;;;5029356;28;20084;-74
2021/12/18 11:55:48;;;;;;;4.65;1.80;;;12.70;92.10;;;;;;5034766;28;20032;-76
2021/12/18 11:58:18;;;;;;;10.20;1.98;;;12.70;92.10;;;;;;5032423;28;20044;-74
2021/12/18 12:01:12;;;;;;;8.57;2.22;;;12.70;92.00;;;;;;5030328;28;20060;-73
2021/12/18 12:03:52;;;;;;;8.68;1.80;;;12.70;92.00;;;;;;5033526;28;20116;-74
2021/12/18 12:06:33;;;;;;;6.78;2.05;;;12.70;92.00;;;;;;5031491;28;20493;-76
2021/12/18 12:09:34;;;;;;;7.05;1.95;;;12.70;91.90;;;;;;5031445;28;20042;-77
2021/12/18 12:12:06;;;;;;;11.82;2.03;;;12.70;91.90;;;;;;5032609;28;20041;-75
2021/12/18 12:14:42;;;;;;;11.65;2.50;;;12.80;91.90;;;;;;5029013;28;20397;-72
2021/12/18 12:17:15;;;;;;;6.00;2.00;;;12.70;91.80;;;;;;5033604;28;20045;-73
2021/12/18 12:19:56;;;;;;;8.57;1.90;;;12.70;91.90;;;;;;5030740;28;20104;-74
2021/12/18 12:22:42;;;;;;;11.55;2.40;;;12.70;91.90;;;;;;5029553;28;20095;-73
2021/12/18 12:25:11;;;;;;;10.20;2.17;;;12.80;91.90;;;;;;5033886;28;20461;-81
2021/12/18 12:27:39;;;;;;;10.38;2.15;;;12.70;91.90;;;;;;5039609;28;20036;-78
2021/12/18 12:31:01;;;;;;;6.93;2.08;;;12.70;91.90;;;;;;5034672;28;20079;-76
2021/12/18 12:33:30;;;;;;;9.40;2.03;;;12.80;91.90;;;;;;5035283;28;20045;-76
2021/12/18 12:36:03;;;;;;;10.00;2.30;;;12.80;91.80;;;;;;5031090;28;20388;-73
2021/12/18 12:38:33;;;;;;;10.70;2.20;;;12.80;91.90;;;;;;5044816;28;20082;-70
2021/12/18 12:41:31;;;;;;;6.60;1.90;;;12.80;91.90;;;;;;5051441;28;20025;-77
2021/12/18 12:44:00;;;;;;;23.45;10.70;;;12.80;92.00;;;;;;5046236;28;20441;-73
2021/12/18 12:46:28;;;;;;;9.07;2.53;;;12.80;91.90;;;;;;5048202;28;20090;-76
2021/12/18 12:49:11;;;;;;;7.60;2.00;;;12.80;91.90;;;;;;5040795;28;20511;-76
2021/12/18 12:52:01;;;;;;;12.13;2.00;;;12.80;91.90;;;;;;5042435;28;20396;-74
2021/12/18 12:54:49;;;;;;;8.05;2.30;;;12.80;91.90;;;;;;5035911;28;20073;-74
2021/12/18 12:57:27;;;;;;;7.45;1.63;;;12.80;91.90;;;;;;5048614;28;20076;-76
2021/12/18 12:59:59;;;;;;;7.97;1.83;;;12.80;91.90;;;;;;5034342;28;20063;-77
2021/12/18 13:02:30;;;;;;;7.50;2.70;;;12.80;91.90;;;;;;5054338;28;20029;-75
2021/12/18 13:05:07;;;;;;;13.15;1.90;;;12.80;91.90;;;;;;5051929;28;20048;-77
2021/12/18 13:07:34;;;;;;;20.75;2.47;;;12.80;92.00;;;;;;5041630;28;20354;-73
2021/12/18 13:10:00;;;;;;;10.02;1.85;;;12.80;92.00;;;;;;5033181;28;20034;-74
2021/12/18 13:12:26;;;;;;;10.82;1.98;;;12.80;92.00;;;;;;5038678;28;20041;-75
2021/12/18 13:14:55;;;;;;;12.32;1.98;;;12.80;92.00;;;;;;5034776;28;20047;-74
2021/12/18 13:17:27;;;;;;;8.45;2.33;;;12.80;91.90;;;;;;5033385;28;20037;-75
2021/12/18 13:19:58;;;;;;;9.95;2.20;;;12.80;91.80;;;;;;5047251;28;20044;-75
2021/12/18 13:22:30;;;;;;;12.10;2.05;;;12.80;91.80;;;;;;5033107;28;20112;-74
2021/12/18 13:25:08;;;;;;;11.82;2.40;;;12.70;91.80;;;;;;5032768;28;20032;-75
2021/12/18 13:27:36;;;;;;;8.63;1.83;;;12.80;91.70;;;;;;5038256;28;20037;-75
2021/12/18 13:30:22;;;;;;;13.00;2.28;;;12.70;91.70;;;;;;5045964;28;20064;-74
2021/12/18 13:32:54;;;;;;;12.95;2.35;;;12.80;91.80;;;;;;5049687;28;20032;-75
2021/12/18 13:35:21;;;;;;;6.78;1.75;;;12.80;91.80;;;;;;5037709;28;20022;-75
2021/12/18 13:38:11;;;;;;;8.63;2.10;;;12.70;91.80;;;;;;5047984;28;20044;-74